createdAt,value
2019-04-12T00:02:21.389Z,4.53
2019-04-12T00:04:50.278Z,4.62
2019-04-12T00:07:25.232Z,4.78
2019-04-12T00:09:54.108Z,5.05
2019-04-12T00:12:22.902Z,4.47
2019-04-12T00:14:58.061Z,4.50
2019-04-12T00:17:26.807Z,5.20
2019-04-12T00:19:55.620Z,4.83
2019-04-12T00:22:30.959Z,5.17
2019-04-12T00:24:59.716Z,5.17
2019-04-12T00:27:28.462Z,4.75
2019-04-12T00:30:04.367Z,5.12
2019-04-12T00:32:40.249Z,5.12
2019-04-12T00:35:22.197Z,5.17
2019-04-12T00:37:55.193Z,5.50
2019-04-12T00:40:21.703Z,4.97
2019-04-12T00:42:57.340Z,5.10
2019-04-12T00:45:26.091Z,5.40
2019-04-12T00:47:55.120Z,5.20
2019-04-12T00:50:30.686Z,5.28
2019-04-12T00:52:59.442Z,5.35
2019-04-12T00:55:28.144Z,5.17
2019-04-12T00:58:10.095Z,5.20
2019-04-12T01:00:56.597Z,5.22
2019-04-12T01:03:32.147Z,5.72
2019-04-12T01:06:01.594Z,5.40
2019-04-12T01:08:30.424Z,4.95
2019-04-12T01:11:16.987Z,5.33
2019-04-12T01:13:45.728Z,5.12
2019-04-12T01:16:14.447Z,5.35
2019-04-12T01:18:49.326Z,4.87
2019-04-12T01:21:18.629Z,5.42
2019-04-12T01:23:47.443Z,5.53
2019-04-12T01:26:23.283Z,5.12
2019-04-12T01:28:52.165Z,5.53
2019-04-12T01:31:20.946Z,5.28
2019-04-12T01:33:56.615Z,5.20
2019-04-12T01:36:31.743Z,5.62
2019-04-12T01:39:06.680Z,4.97
2019-04-12T01:41:35.478Z,5.50
2019-04-12T01:44:04.322Z,5.03
2019-04-12T01:46:39.152Z,4.85
2019-04-12T01:49:08.258Z,5.03
2019-04-12T01:51:39.415Z,5.17
2019-04-12T01:54:15.210Z,5.35
2019-04-12T01:56:44.130Z,5.25
2019-04-12T01:59:26.638Z,5.70
2019-04-12T02:01:55.361Z,4.92
2019-04-12T02:04:24.124Z,5.17
2019-04-12T02:06:59.058Z,5.58
2019-04-12T02:09:27.785Z,5.90
2019-04-12T02:11:56.552Z,5.55
2019-04-12T02:14:31.850Z,5.47
2019-04-12T02:17:00.694Z,5.40
2019-04-12T02:19:29.485Z,5.75
2019-04-12T02:22:05.227Z,5.40
2019-04-12T02:24:34.158Z,5.33
2019-04-12T02:27:02.862Z,5.50
2019-04-12T02:29:38.031Z,5.12
2019-04-12T02:32:34.912Z,5.40
2019-04-12T02:35:19.927Z,5.37
2019-04-12T02:37:55.371Z,5.28
2019-04-12T02:40:31.671Z,4.83
2019-04-12T02:43:03.013Z,5.22
2019-04-12T02:45:41.241Z,5.60
2019-04-12T02:48:35.463Z,5.50
2019-04-12T02:51:19.618Z,4.80
2019-04-12T02:53:58.218Z,5.60
2019-04-12T02:56:56.726Z,5.13
2019-04-12T02:59:29.817Z,5.30
2019-04-12T03:02:14.489Z,5.60
2019-04-12T03:04:43.284Z,5.10
2019-04-12T03:07:12.201Z,5.47
2019-04-12T03:09:51.320Z,4.50
2019-04-12T03:12:19.513Z,5.17
2019-04-12T03:14:48.638Z,4.83
2019-04-12T03:17:23.719Z,4.85
2019-04-12T03:19:53.246Z,4.65
2019-04-12T03:22:22.588Z,4.87
2019-04-12T03:24:58.687Z,4.55
2019-04-12T03:27:27.400Z,5.20
2019-04-12T03:29:56.591Z,4.75
2019-04-12T03:32:32.399Z,5.08
2019-04-12T03:35:07.643Z,5.22
2019-04-12T03:37:50.081Z,4.87
2019-04-12T03:40:18.998Z,5.40
2019-04-12T03:42:47.919Z,4.90
2019-04-12T03:45:23.927Z,5.10
2019-04-12T03:47:52.781Z,4.77
2019-04-12T03:50:21.585Z,4.80
2019-04-12T03:52:57.222Z,5.20
2019-04-12T03:55:26.093Z,5.00
2019-04-12T03:57:54.810Z,5.03
2019-04-12T04:00:31.411Z,4.95
2019-04-12T04:03:07.351Z,4.60
2019-04-12T04:05:43.102Z,4.83
2019-04-12T04:08:11.959Z,5.10
2019-04-12T04:10:41.238Z,4.65
2019-04-12T04:13:16.196Z,4.63
2019-04-12T04:15:45.955Z,4.40
2019-04-12T04:18:30.725Z,5.00
2019-04-12T04:21:21.807Z,4.80
2019-04-12T04:24:02.969Z,4.22
2019-04-12T04:26:55.083Z,4.72
2019-04-12T04:30:05.404Z,4.80
2019-04-12T04:32:58.200Z,4.58
2019-04-12T04:35:39.712Z,4.75
2019-04-12T04:38:19.352Z,4.65
2019-04-12T04:40:57.741Z,4.40
2019-04-12T04:43:26.920Z,4.37
2019-04-12T04:45:56.202Z,4.43
2019-04-12T04:48:32.000Z,4.47
2019-04-12T04:51:00.901Z,4.12
2019-04-12T04:53:29.839Z,4.05
2019-04-12T04:56:05.494Z,4.22
2019-04-12T04:58:34.360Z,4.10
2019-04-12T05:01:03.618Z,3.95
2019-04-12T05:03:46.045Z,4.40
2019-04-12T05:06:15.262Z,4.25
2019-04-12T05:08:44.268Z,3.80
2019-04-12T05:11:20.336Z,3.98
2019-04-12T05:13:50.061Z,4.10
2019-04-12T05:16:39.847Z,4.17
2019-04-12T05:19:15.707Z,3.50
2019-04-12T05:21:50.890Z,3.87
2019-04-12T05:24:20.117Z,4.00
2019-04-12T05:26:49.148Z,3.75
2019-04-12T05:29:24.887Z,3.95
2019-04-12T05:31:53.806Z,3.83
2019-04-12T05:34:22.690Z,4.05
2019-04-12T05:37:09.355Z,3.80
2019-04-12T05:39:35.436Z,3.37
2019-04-12T05:42:11.189Z,3.40
2019-04-12T05:44:40.121Z,3.60
2019-04-12T05:47:35.218Z,3.80
2019-04-12T05:50:10.684Z,3.70
2019-04-12T05:52:46.309Z,3.60
2019-04-12T05:55:16.384Z,4.03
2019-04-12T05:57:47.013Z,3.40
2019-04-12T06:00:43.329Z,3.98
2019-04-12T06:03:11.702Z,3.77
2019-04-12T06:05:54.615Z,3.72
2019-04-12T06:08:31.899Z,3.65
2019-04-12T06:11:06.812Z,3.50
2019-04-12T06:13:35.683Z,3.87
2019-04-12T06:16:04.477Z,3.60
2019-04-12T06:18:40.968Z,3.70
2019-04-12T06:21:17.316Z,3.35
2019-04-12T06:23:52.172Z,3.80
2019-04-12T06:26:42.956Z,3.60
2019-04-12T06:29:18.535Z,3.30
2019-04-12T06:31:47.463Z,3.40
2019-04-12T06:34:18.695Z,3.52
2019-04-12T06:36:54.354Z,3.40
2019-04-12T06:39:29.758Z,3.67
2019-04-12T06:42:05.143Z,3.40
2019-04-12T06:44:33.883Z,3.72
2019-04-12T06:47:02.770Z,3.55
2019-04-12T06:49:37.738Z,3.72
2019-04-12T06:52:06.643Z,3.70
2019-04-12T06:54:35.536Z,3.60
2019-04-12T06:57:31.397Z,3.75
2019-04-12T07:00:26.228Z,3.67
2019-04-12T07:03:07.989Z,3.70
2019-04-12T07:05:36.779Z,3.30
2019-04-12T07:08:19.696Z,3.62
2019-04-12T07:10:48.477Z,3.60
2019-04-12T07:13:17.290Z,3.35
2019-04-12T07:15:52.991Z,3.25
2019-04-12T07:18:21.855Z,3.52
2019-04-12T07:20:50.807Z,3.27
2019-04-12T07:23:26.612Z,3.58
2019-04-12T07:25:55.456Z,3.00
2019-04-12T07:28:24.173Z,2.95
2019-04-12T07:31:00.088Z,2.83
2019-04-12T07:33:28.855Z,2.92
2019-04-12T07:35:57.616Z,3.17
2019-04-12T07:38:33.355Z,3.17
2019-04-12T07:41:08.564Z,2.98
2019-04-12T07:43:44.226Z,3.07
2019-04-12T07:46:12.971Z,3.40
2019-04-12T07:48:41.722Z,3.20
2019-04-12T07:51:22.397Z,3.20
2019-04-12T07:54:03.115Z,2.90
2019-04-12T07:56:38.865Z,3.20
2019-04-12T07:59:21.999Z,2.83
2019-04-12T08:02:15.253Z,3.12
2019-04-12T08:05:01.734Z,2.90
2019-04-12T08:07:45.471Z,3.10
2019-04-12T08:10:20.915Z,2.80
2019-04-12T08:12:56.010Z,2.80
2019-04-12T08:15:24.759Z,3.10
2019-04-12T08:17:53.491Z,2.60
2019-04-12T08:20:29.571Z,2.85
2019-04-12T08:22:58.544Z,3.00
2019-04-12T08:25:27.295Z,3.20
2019-04-12T08:28:02.494Z,3.30
2019-04-12T08:30:31.268Z,3.10
2019-04-12T08:33:00.252Z,2.77
2019-04-12T08:35:36.170Z,3.00
2019-04-12T08:38:11.402Z,2.70
2019-04-12T08:40:53.329Z,2.70
2019-04-12T08:43:22.040Z,2.50
2019-04-12T08:45:50.803Z,2.75
2019-04-12T08:48:26.344Z,2.80
2019-04-12T08:50:55.222Z,2.70
2019-04-12T08:53:24.036Z,3.10
2019-04-12T08:55:59.122Z,2.60
2019-04-12T08:58:30.615Z,2.87
2019-04-12T09:00:58.501Z,2.90
2019-04-12T09:03:34.045Z,3.00
2019-04-12T09:06:02.854Z,2.75
2019-04-12T09:08:34.097Z,3.00
2019-04-12T09:11:16.691Z,2.80
2019-04-12T09:13:45.490Z,2.60
2019-04-12T09:16:14.352Z,2.67
2019-04-12T09:18:55.988Z,2.92
2019-04-12T09:21:43.966Z,2.77
2019-04-12T09:24:26.902Z,2.87
2019-04-12T09:26:55.759Z,2.75
2019-04-12T09:29:24.480Z,2.65
2019-04-12T09:32:00.986Z,2.45
2019-04-12T09:34:30.294Z,2.75
2019-04-12T09:36:59.055Z,2.45
2019-04-12T09:39:34.668Z,2.40
2019-04-12T09:42:11.758Z,2.45
2019-04-12T09:44:47.364Z,2.67
2019-04-12T09:47:16.127Z,2.52
2019-04-12T09:49:44.822Z,2.22
2019-04-12T09:52:20.045Z,2.10
2019-04-12T09:54:48.764Z,2.20
2019-04-12T09:57:17.516Z,2.00
2019-04-12T09:59:54.929Z,2.07
2019-04-12T10:02:23.713Z,2.30
2019-04-12T10:04:54.586Z,2.00
2019-04-12T10:07:29.961Z,1.90
2019-04-12T10:09:58.692Z,2.00
2019-04-12T10:12:40.534Z,2.20
2019-04-12T10:15:11.415Z,2.05
2019-04-12T10:17:40.243Z,2.00
2019-04-12T10:20:15.250Z,2.10
2019-04-12T10:22:43.987Z,2.17
2019-04-12T10:25:12.962Z,2.10
2019-04-12T10:27:51.037Z,2.20
2019-04-12T10:30:20.026Z,2.02
2019-04-12T10:32:48.763Z,2.20
2019-04-12T10:35:24.279Z,2.30
2019-04-12T10:37:59.210Z,2.15
2019-04-12T10:40:41.548Z,2.07
2019-04-12T10:43:10.300Z,2.00
2019-04-12T10:45:52.329Z,2.17
2019-04-12T10:48:34.776Z,2.30
2019-04-12T10:51:47.723Z,2.27
2019-04-12T10:54:24.738Z,2.42
2019-04-12T10:57:00.270Z,2.20
2019-04-12T10:59:29.297Z,2.47
2019-04-12T11:01:58.010Z,2.10
2019-04-12T11:04:33.505Z,2.23
2019-04-12T11:07:02.255Z,2.20
2019-04-12T11:09:31.295Z,2.60
2019-04-12T11:12:07.103Z,2.75
2019-04-12T11:14:42.894Z,2.37
2019-04-12T11:17:18.283Z,2.50
2019-04-12T11:19:47.333Z,2.98
2019-04-12T11:22:16.047Z,2.50
2019-04-12T11:24:52.001Z,2.40
2019-04-12T11:27:20.788Z,2.58
2019-04-12T11:29:49.655Z,2.47
2019-04-12T11:32:25.488Z,2.90
2019-04-12T11:34:54.213Z,2.77
2019-04-12T11:37:22.974Z,2.60
2019-04-12T11:39:58.184Z,2.62
2019-04-12T11:42:35.369Z,2.60
2019-04-12T11:45:11.527Z,2.60
2019-04-12T11:47:40.301Z,2.40
2019-04-12T11:50:09.786Z,2.55
2019-04-12T11:52:45.105Z,2.70
2019-04-12T11:55:14.063Z,2.50
2019-04-12T11:57:42.817Z,2.45
2019-04-12T12:00:22.547Z,2.50
2019-04-12T12:03:01.945Z,2.87
2019-04-12T12:05:44.335Z,2.52
2019-04-12T12:08:23.577Z,2.92
2019-04-12T12:11:09.235Z,2.60
2019-04-12T12:13:55.108Z,2.47
2019-04-12T12:16:54.449Z,2.70
2019-04-12T12:19:24.499Z,2.60
2019-04-12T12:21:53.319Z,2.40
2019-04-12T12:24:28.938Z,2.40
2019-04-12T12:26:57.914Z,2.70
2019-04-12T12:29:26.760Z,2.45
2019-04-12T12:32:02.360Z,2.60
2019-04-12T12:34:31.106Z,2.45
2019-04-12T12:36:59.810Z,2.47
2019-04-12T12:39:35.574Z,2.60
2019-04-12T12:42:11.073Z,2.47
2019-04-12T12:44:46.270Z,2.40
2019-04-12T12:47:16.964Z,2.90
2019-04-12T12:49:46.044Z,2.37
2019-04-12T12:52:22.085Z,2.80
2019-04-12T12:54:51.074Z,2.55
2019-04-12T12:57:19.820Z,2.52
2019-04-12T12:59:55.655Z,2.70
2019-04-12T13:02:24.410Z,2.40
2019-04-12T13:04:53.133Z,2.30
2019-04-12T13:07:28.755Z,2.45
2019-04-12T13:09:57.527Z,2.80
2019-04-12T13:12:26.236Z,2.25
2019-04-12T13:15:02.837Z,2.20
2019-04-12T13:17:38.663Z,2.50
2019-04-12T13:20:14.660Z,2.45
2019-04-12T13:22:43.651Z,2.60
2019-04-12T13:25:12.402Z,2.52
2019-04-12T13:27:47.729Z,2.33
2019-04-12T13:30:34.186Z,2.60
2019-04-12T13:33:14.121Z,2.27
2019-04-12T13:35:51.763Z,2.70
2019-04-12T13:38:55.139Z,2.47
2019-04-12T13:41:30.751Z,2.83
2019-04-12T13:44:13.146Z,2.43
2019-04-12T13:46:42.008Z,2.83
2019-04-12T13:49:10.725Z,2.60
2019-04-12T13:51:46.351Z,2.83
2019-04-12T13:54:15.413Z,2.80
2019-04-12T13:56:44.154Z,2.80
2019-04-12T13:59:19.742Z,2.85
2019-04-12T14:01:48.562Z,3.10
2019-04-12T14:04:17.302Z,3.45
2019-04-12T14:06:52.959Z,3.30
2019-04-12T14:09:22.144Z,3.00
2019-04-12T14:11:50.999Z,2.70
2019-04-12T14:14:26.167Z,3.00
2019-04-12T14:16:55.033Z,3.37
2019-04-12T14:19:36.082Z,3.67
2019-04-12T14:22:05.525Z,3.40
2019-04-12T14:24:34.595Z,3.15
2019-04-12T14:27:10.587Z,3.60
2019-04-12T14:29:44.673Z,3.90
2019-04-12T14:32:26.776Z,3.90
2019-04-12T14:35:13.487Z,3.58
2019-04-12T14:37:54.912Z,3.37
2019-04-12T14:40:41.887Z,3.50
2019-04-12T14:43:21.258Z,3.95
2019-04-12T14:46:09.838Z,3.33
2019-04-12T14:48:45.462Z,3.70
2019-04-12T14:51:14.161Z,4.10
2019-04-12T14:53:42.919Z,3.70
2019-04-12T14:56:18.590Z,3.83
2019-04-12T14:58:47.417Z,3.72
2019-04-12T15:01:17.020Z,3.22
2019-04-12T15:03:53.337Z,3.77
2019-04-12T15:06:22.148Z,3.40
2019-04-12T15:08:50.939Z,3.70
2019-04-12T15:11:25.867Z,3.72
2019-04-12T15:13:54.585Z,4.08
2019-04-12T15:16:23.567Z,3.83
2019-04-12T15:18:59.377Z,3.72
2019-04-12T15:21:35.243Z,3.67
2019-04-12T15:24:10.352Z,3.92
2019-04-12T15:26:39.176Z,3.33
2019-04-12T15:29:08.335Z,4.40
2019-04-12T15:31:43.338Z,3.47
2019-04-12T15:34:12.306Z,4.12
2019-04-12T15:36:41.062Z,3.90
2019-04-12T15:39:16.998Z,4.10
2019-04-12T15:41:51.977Z,3.87
2019-04-12T15:44:34.190Z,3.60
2019-04-12T15:47:03.230Z,3.90
2019-04-12T15:49:32.283Z,4.10
2019-04-12T15:52:08.211Z,4.27
2019-04-12T15:54:37.088Z,4.23
2019-04-12T15:57:06.292Z,4.30
2019-04-12T15:59:42.390Z,4.40
2019-04-12T16:02:11.400Z,4.05
2019-04-12T16:04:40.201Z,4.58
2019-04-12T16:07:16.132Z,4.17
2019-04-12T16:09:48.378Z,4.37
2019-04-12T16:12:54.894Z,4.22
2019-04-12T16:15:57.677Z,4.37
2019-04-12T16:18:33.871Z,4.28
2019-04-12T16:21:03.765Z,4.45
2019-04-12T16:23:46.381Z,4.40
2019-04-12T16:26:15.315Z,4.65
2019-04-12T16:28:57.927Z,4.62
2019-04-12T16:32:01.937Z,4.28
2019-04-12T16:34:57.720Z,4.55
2019-04-12T16:37:39.397Z,4.20
2019-04-12T16:40:15.276Z,4.50
2019-04-12T16:42:50.636Z,4.45
2019-04-12T16:45:32.701Z,4.25
2019-04-12T16:48:01.488Z,4.80
2019-04-12T16:53:15.211Z,4.35
2019-04-12T16:55:44.362Z,4.20
2019-04-12T16:58:19.964Z,5.08
2019-04-12T17:00:48.811Z,4.50
2019-04-12T17:03:18.722Z,4.62
2019-04-12T17:05:55.935Z,4.70
2019-04-12T17:08:24.630Z,4.37
2019-04-12T17:10:53.411Z,4.28
2019-04-12T17:13:28.570Z,4.45
2019-04-12T17:15:58.040Z,4.78
2019-04-12T17:18:26.727Z,4.60
2019-04-12T17:21:02.172Z,4.53
2019-04-12T17:23:31.556Z,4.97
2019-04-12T17:26:14.193Z,4.75
2019-04-12T17:28:42.971Z,5.12
2019-04-12T17:31:11.745Z,4.70
2019-04-12T17:33:49.355Z,4.90
2019-04-12T17:36:18.304Z,5.00
2019-04-12T17:38:47.063Z,5.05
2019-04-12T17:41:22.172Z,4.87
2019-04-12T17:43:57.306Z,4.70
2019-04-12T17:46:40.352Z,5.22
2019-04-12T17:49:28.128Z,5.08
2019-04-12T17:52:08.306Z,4.60
2019-04-12T17:55:04.944Z,4.97
2019-04-12T17:57:40.325Z,5.10
2019-04-12T18:00:18.381Z,5.03
2019-04-12T18:02:53.338Z,5.25
2019-04-12T18:05:22.129Z,4.30
2019-04-12T18:07:50.929Z,5.08
2019-04-12T18:10:28.771Z,4.90
2019-04-12T18:12:59.529Z,4.80
2019-04-12T18:15:35.106Z,5.30
2019-04-12T18:18:06.330Z,5.30
2019-04-12T18:20:34.962Z,4.72
2019-04-12T18:23:11.511Z,5.10
2019-04-12T18:25:40.313Z,4.92
2019-04-12T18:28:24.914Z,5.08
2019-04-12T18:30:54.075Z,5.65
2019-04-12T18:33:23.201Z,5.00
2019-04-12T18:35:59.237Z,5.90
2019-04-12T18:38:28.047Z,5.20
2019-04-12T18:40:56.901Z,5.35
2019-04-12T18:43:32.970Z,5.80
2019-04-12T18:46:08.293Z,5.35
2019-04-12T18:48:44.254Z,5.50
2019-04-12T18:51:15.668Z,5.33
2019-04-12T18:53:44.731Z,5.55
2019-04-12T18:56:20.792Z,5.58
2019-04-12T18:58:49.681Z,5.17
2019-04-12T19:01:18.637Z,5.45
2019-04-12T19:03:54.236Z,5.60
2019-04-12T19:06:24.074Z,5.20
2019-04-12T19:08:54.103Z,5.40
2019-04-12T19:11:30.948Z,5.30
2019-04-12T19:14:00.699Z,5.55
2019-04-12T19:16:30.562Z,5.03
2019-04-12T19:19:06.935Z,5.55
2019-04-12T19:21:36.716Z,5.00
2019-04-12T19:24:06.634Z,4.87
2019-04-12T19:26:43.527Z,5.55
2019-04-12T19:29:18.873Z,5.28
2019-04-12T19:32:39.034Z,5.40
2019-04-12T19:35:30.233Z,5.23
2019-04-12T19:38:28.109Z,4.97
2019-04-12T19:40:59.300Z,5.12
2019-04-12T19:43:43.380Z,5.35
2019-04-12T19:46:18.862Z,4.90
2019-04-12T19:48:58.598Z,5.37
2019-04-12T19:51:27.335Z,5.08
2019-04-12T19:53:56.072Z,5.28
2019-04-12T19:56:32.559Z,4.95
2019-04-12T19:59:01.299Z,4.80
2019-04-12T20:01:30.038Z,5.30
2019-04-12T20:04:05.191Z,5.05
2019-04-12T20:06:34.197Z,5.57
2019-04-12T20:09:03.592Z,5.37
2019-04-12T20:11:38.664Z,4.50
2019-04-12T20:14:07.670Z,4.87
2019-04-12T20:16:36.770Z,4.90
2019-04-12T20:19:13.042Z,5.10
2019-04-12T20:22:07.908Z,5.03
2019-04-12T20:24:50.177Z,4.78
2019-04-12T20:27:19.035Z,4.80
2019-04-12T20:30:01.572Z,5.35
2019-04-12T20:32:31.552Z,4.93
2019-04-12T20:35:00.370Z,4.87
2019-04-12T20:37:35.914Z,4.85
2019-04-12T20:40:05.347Z,4.90
2019-04-12T20:42:34.055Z,4.97
2019-04-12T20:45:09.321Z,4.70
2019-04-12T20:47:38.025Z,5.00
2019-04-12T20:50:07.120Z,5.03
2019-04-12T20:52:43.553Z,4.60
2019-04-12T20:55:12.405Z,4.70
2019-04-12T20:57:41.112Z,4.80
2019-04-12T21:00:17.543Z,4.70
2019-04-12T21:02:46.307Z,5.35
2019-04-12T21:05:15.087Z,5.28
2019-04-12T21:07:51.132Z,4.80
2019-04-12T21:10:19.917Z,5.00
2019-04-12T21:12:48.770Z,5.00
2019-04-12T21:15:23.732Z,5.33
2019-04-12T21:17:52.480Z,5.37
2019-04-12T21:20:21.199Z,5.10
2019-04-12T21:22:58.860Z,5.12
2019-04-12T21:25:34.204Z,4.97
2019-04-12T21:28:10.322Z,5.12
2019-04-12T21:30:47.032Z,5.25
2019-04-12T21:33:28.492Z,4.65
2019-04-12T21:35:54.737Z,6.40
2019-04-12T21:38:25.188Z,5.95
2019-04-12T21:41:00.080Z,5.97
2019-04-12T21:43:28.842Z,5.95
2019-04-12T21:45:57.595Z,6.20
2019-04-12T21:48:33.430Z,6.23
2019-04-12T21:51:02.154Z,6.17
2019-04-12T21:53:30.906Z,6.05
2019-04-12T21:56:08.319Z,5.78
2019-04-12T21:58:37.037Z,6.33
2019-04-12T22:01:08.473Z,6.30
2019-04-12T22:03:47.176Z,5.85
2019-04-12T22:06:15.999Z,6.20
2019-04-12T22:08:44.814Z,6.53
2019-04-12T22:11:20.505Z,6.20
2019-04-12T22:13:49.221Z,6.50
2019-04-12T22:16:18.420Z,6.03
2019-04-12T22:18:54.116Z,6.08
2019-04-12T22:21:22.827Z,6.00
2019-04-12T22:24:04.379Z,6.05
2019-04-12T22:26:39.696Z,6.05
2019-04-12T22:29:14.632Z,6.10
2019-04-12T22:31:54.851Z,6.03
2019-04-12T22:34:30.588Z,6.33
2019-04-12T22:36:59.295Z,5.75
2019-04-12T22:39:28.020Z,6.47
2019-04-12T22:42:02.889Z,6.22
2019-04-12T22:44:31.642Z,6.55
2019-04-12T22:47:00.361Z,6.30
2019-04-12T22:49:36.053Z,6.53
2019-04-12T22:52:04.816Z,6.25
2019-04-12T22:54:33.515Z,6.50
2019-04-12T22:57:08.921Z,6.80
2019-04-12T22:59:37.616Z,6.60
2019-04-12T23:02:06.385Z,6.27
2019-04-12T23:04:42.006Z,6.30
2019-04-12T23:07:11.498Z,6.50
2019-04-12T23:09:40.221Z,6.20
2019-04-12T23:12:15.979Z,7.10
2019-04-12T23:14:44.728Z,6.80
2019-04-12T23:17:13.451Z,6.33
2019-04-12T23:19:49.083Z,6.33
2019-04-12T23:22:17.913Z,6.25
2019-04-12T23:24:59.908Z,6.20
2019-04-12T23:27:35.446Z,6.67
2019-04-12T23:30:12.089Z,6.83
2019-04-12T23:32:47.456Z,6.50
2019-04-12T23:35:44.298Z,6.40
2019-04-12T23:38:13.424Z,6.92
2019-04-12T23:40:42.203Z,6.80
2019-04-12T23:43:17.247Z,6.45
2019-04-12T23:45:46.027Z,6.45
2019-04-12T23:48:14.782Z,6.55
2019-04-12T23:50:50.520Z,7.30
2019-04-12T23:53:19.268Z,7.03
2019-04-12T23:55:47.975Z,7.00
2019-04-12T23:58:23.748Z,7.40
